createdAt,value
2022-09-14T00:00:32.241Z,99161.78
2022-09-14T00:01:25.708Z,99150.13
2022-09-14T00:02:12.875Z,99154.19
2022-09-14T00:02:59.735Z,99161.19
2022-09-14T00:03:46.414Z,99160.59
2022-09-14T00:04:33.051Z,99158.97
2022-09-14T00:05:19.630Z,99161.13
2022-09-14T00:06:07.873Z,99156.41
2022-09-14T00:06:54.521Z,99158.53
2022-09-14T00:07:41.111Z,99158.78
2022-09-14T00:08:27.731Z,99156.88
2022-09-14T00:09:20.473Z,99156.56
2022-09-14T00:10:07.420Z,99157.59
2022-09-14T00:10:54.021Z,99159.75
2022-09-14T00:11:41.421Z,99156.44
2022-09-14T00:12:28.231Z,99150.25
2022-09-14T00:13:15.232Z,99149.06
2022-09-14T00:14:02.971Z,99157.53
2022-09-14T00:14:49.583Z,99154.53
2022-09-14T00:15:40.360Z,99161.91
2022-09-14T00:16:33.650Z,99159.28
2022-09-14T00:17:20.413Z,99152.66
2022-09-14T00:18:08.622Z,99150.91
2022-09-14T00:18:59.190Z,99149.22
2022-09-14T00:19:45.894Z,99154.59
2022-09-14T00:20:33.281Z,99149.72
2022-09-14T00:21:20.708Z,99156.50
2022-09-14T00:22:07.381Z,99152.38
2022-09-14T00:22:54.028Z,99155.91
2022-09-14T00:23:42.222Z,99155.81
2022-09-14T00:24:35.883Z,99152.03
2022-09-14T00:25:22.481Z,99145.41
2022-09-14T00:26:15.460Z,99156.31
2022-09-14T00:27:03.861Z,99143.12
2022-09-14T00:27:50.460Z,99144.22
2022-09-14T00:28:42.339Z,99147.19
2022-09-14T00:29:30.310Z,99144.44
2022-09-14T00:30:17.063Z,99137.22
2022-09-14T00:31:05.061Z,99142.06
2022-09-14T00:31:52.329Z,99144.72
2022-09-14T00:32:39.000Z,99142.81
2022-09-14T00:33:25.600Z,99138.44
2022-09-14T00:34:15.080Z,99144.34
2022-09-14T00:35:01.671Z,99142.94
2022-09-14T00:35:48.397Z,99139.03
2022-09-14T00:36:39.930Z,99144.84
2022-09-14T00:37:26.531Z,99139.63
2022-09-14T00:38:13.212Z,99137.63
2022-09-14T00:39:00.907Z,99132.41
2022-09-14T00:39:48.581Z,99133.28
2022-09-14T00:40:35.345Z,99133.16
2022-09-14T00:41:24.760Z,99127.47
2022-09-14T00:42:15.761Z,99125.31
2022-09-14T00:43:02.490Z,99129.38
2022-09-14T00:44:00.140Z,99127.84
2022-09-14T00:44:46.654Z,99117.16
2022-09-14T00:45:33.444Z,99117.44
2022-09-14T00:46:20.919Z,99119.22
2022-09-14T00:47:07.650Z,99118.38
2022-09-14T00:47:54.507Z,99109.72
2022-09-14T00:48:41.122Z,99108.66
2022-09-14T00:49:32.080Z,99111.38
2022-09-14T00:50:18.990Z,99108.16
2022-09-14T00:51:05.877Z,99109.13
2022-09-14T00:52:04.040Z,99110.31
2022-09-14T00:52:50.840Z,99106.63
2022-09-14T00:53:37.501Z,99111.25
2022-09-14T00:54:24.530Z,99109.03
2022-09-14T00:55:14.663Z,99109.03
2022-09-14T00:56:01.240Z,99105.50
2022-09-14T00:56:48.420Z,99107.50
2022-09-14T00:57:38.304Z,99099.31
2022-09-14T00:58:24.982Z,99100.38
2022-09-14T00:59:20.540Z,99102.28
2022-09-14T01:00:10.420Z,99096.00
2022-09-14T01:00:57.675Z,99092.91
2022-09-14T01:01:44.870Z,99094.59
2022-09-14T01:02:31.719Z,99098.00
2022-09-14T01:03:18.450Z,99098.72
2022-09-14T01:04:05.120Z,99096.59
2022-09-14T01:04:52.106Z,99100.97
2022-09-14T01:05:55.401Z,99093.97
2022-09-14T01:06:52.579Z,99093.50
2022-09-14T01:08:07.326Z,99100.00
2022-09-14T01:09:04.271Z,99091.22
2022-09-14T01:10:34.720Z,99097.19
2022-09-14T01:11:27.269Z,99087.34
2022-09-14T01:12:35.880Z,99088.75
2022-09-14T01:13:56.184Z,99087.56
2022-09-14T01:14:54.793Z,99083.06
2022-09-14T01:16:16.433Z,99075.25
2022-09-14T01:17:18.783Z,99080.44
2022-09-14T01:18:16.953Z,99080.63
2022-09-14T01:19:14.840Z,99082.69
2022-09-14T01:20:16.420Z,99068.38
2022-09-14T01:21:12.623Z,99081.66
2022-09-14T01:22:17.340Z,99080.34
2022-09-14T01:23:34.220Z,99087.69
2022-09-14T01:24:44.260Z,99082.47
2022-09-14T01:25:55.150Z,99081.16
2022-09-14T01:26:56.725Z,99079.59
2022-09-14T01:27:44.268Z,99079.59
2022-09-14T01:28:38.189Z,99072.75
2022-09-14T01:29:36.800Z,99077.38
2022-09-14T01:30:24.519Z,99077.84
2022-09-14T01:31:17.964Z,99071.56
2022-09-14T01:32:29.139Z,99074.88
2022-09-14T01:33:21.500Z,99075.38
2022-09-14T01:34:16.750Z,99069.94
2022-09-14T01:35:31.939Z,99066.62
2022-09-14T01:36:18.680Z,99078.34
2022-09-14T01:37:13.313Z,99069.09
2022-09-14T01:38:09.726Z,99066.62
2022-09-14T01:38:56.758Z,99069.09
2022-09-14T01:39:47.381Z,99063.91
2022-09-14T01:40:38.183Z,99066.03
2022-09-14T01:41:29.323Z,99066.34
2022-09-14T01:42:17.400Z,99058.19
2022-09-14T01:43:09.169Z,99056.78
2022-09-14T01:44:11.948Z,99058.91
2022-09-14T01:45:01.374Z,99062.22
2022-09-14T01:45:57.264Z,99057.72
2022-09-14T01:46:48.044Z,99062.59
2022-09-14T01:47:39.979Z,99064.00
2022-09-14T01:49:25.179Z,99061.34
2022-09-14T01:50:16.520Z,99058.06
2022-09-14T01:51:10.570Z,99059.38
2022-09-14T01:52:02.810Z,99057.13
2022-09-14T01:52:59.862Z,99056.78
2022-09-14T01:53:55.901Z,99059.28
2022-09-14T01:54:50.639Z,99061.75
2022-09-14T01:55:43.899Z,99057.59
2022-09-14T01:56:39.081Z,99054.19
2022-09-14T01:57:56.969Z,99051.91
2022-09-14T01:59:03.530Z,99047.87
2022-09-14T01:59:54.399Z,99046.69
2022-09-14T02:00:44.123Z,99042.28
2022-09-14T02:01:37.957Z,99041.00
2022-09-14T02:02:29.210Z,99042.06
2022-09-14T02:03:18.978Z,99041.44
2022-09-14T02:04:08.989Z,99048.63
2022-09-14T02:05:11.319Z,99039.97
2022-09-14T02:06:05.699Z,99046.50
2022-09-14T02:06:52.359Z,99035.31
2022-09-14T02:07:39.179Z,99040.47
2022-09-14T02:08:28.581Z,99036.66
2022-09-14T02:09:19.705Z,99041.06
2022-09-14T02:10:09.745Z,99039.81
2022-09-14T02:10:57.600Z,99036.62
2022-09-14T02:11:44.698Z,99037.44
2022-09-14T02:12:31.419Z,99039.66
2022-09-14T02:13:18.074Z,99029.03
2022-09-14T02:14:05.097Z,99029.31
2022-09-14T02:14:53.413Z,99030.97
2022-09-14T02:15:40.158Z,99028.00
2022-09-14T02:16:26.878Z,99029.38
2022-09-14T02:17:13.913Z,99029.06
2022-09-14T02:18:00.910Z,99031.06
2022-09-14T02:18:47.550Z,99025.03
2022-09-14T02:19:40.179Z,99031.38
2022-09-14T02:20:41.723Z,99031.47
2022-09-14T02:21:31.318Z,99035.84
2022-09-14T02:22:17.921Z,99033.97
2022-09-14T02:23:05.369Z,99036.12
2022-09-14T02:23:52.359Z,99031.66
2022-09-14T02:24:39.109Z,99029.81
2022-09-14T02:25:25.769Z,99030.97
2022-09-14T02:26:12.600Z,99031.56
2022-09-14T02:26:59.960Z,99031.56
2022-09-14T02:27:48.239Z,99028.41
2022-09-14T02:28:34.939Z,99032.66
2022-09-14T02:29:21.640Z,99031.22
2022-09-14T02:30:08.950Z,99026.91
2022-09-14T02:31:05.099Z,99031.13
2022-09-14T02:32:30.860Z,99033.87
2022-09-14T02:33:26.679Z,99028.56
2022-09-14T02:34:22.260Z,99028.72
2022-09-14T02:35:14.440Z,99026.53
2022-09-14T02:36:16.981Z,99033.41
2022-09-14T02:37:24.918Z,99028.84
2022-09-14T02:38:22.079Z,99027.38
2022-09-14T02:39:11.280Z,99027.22
2022-09-14T02:40:26.784Z,99026.75
2022-09-14T02:41:33.020Z,99026.03
2022-09-14T02:42:34.211Z,99026.34
2022-09-14T02:43:42.909Z,99023.88
2022-09-14T02:44:37.819Z,99029.47
2022-09-14T02:46:01.481Z,99023.94
2022-09-14T02:46:58.915Z,99028.38
2022-09-14T02:48:17.820Z,99016.16
2022-09-14T02:49:07.219Z,99021.44
2022-09-14T02:50:03.982Z,99015.97
2022-09-14T02:51:16.099Z,99019.59
2022-09-14T02:52:16.734Z,99023.41
2022-09-14T02:53:21.742Z,99016.84
2022-09-14T02:54:31.059Z,99018.25
2022-09-14T02:55:20.439Z,99011.50
2022-09-14T02:56:09.159Z,99018.84
2022-09-14T02:57:00.359Z,99007.69
2022-09-14T02:58:04.398Z,99010.97
2022-09-14T02:58:51.083Z,99007.09
2022-09-14T02:59:37.942Z,99004.06
2022-09-14T03:00:24.561Z,99001.59
2022-09-14T03:01:17.231Z,99004.34
2022-09-14T03:02:04.116Z,99009.84
2022-09-14T03:02:50.802Z,99009.47
2022-09-14T03:03:37.442Z,99012.16
2022-09-14T03:04:24.081Z,99018.22
2022-09-14T03:05:10.670Z,99014.38
2022-09-14T03:05:57.539Z,99007.00
2022-09-14T03:06:44.139Z,99010.09
2022-09-14T03:07:30.780Z,99013.16
2022-09-14T03:08:17.410Z,99011.50
2022-09-14T03:09:04.009Z,99011.75
2022-09-14T03:09:50.680Z,99013.66
2022-09-14T03:10:37.762Z,99008.78
2022-09-14T03:11:24.419Z,99013.16
2022-09-14T03:12:11.019Z,99015.31
2022-09-14T03:12:57.899Z,99016.13
2022-09-14T03:13:44.602Z,99010.72
2022-09-14T03:14:31.202Z,99017.13
2022-09-14T03:15:17.800Z,99008.34
2022-09-14T03:16:10.368Z,99011.34
2022-09-14T03:16:57.006Z,99006.97
2022-09-14T03:17:47.540Z,99005.28
2022-09-14T03:18:34.368Z,99005.38
2022-09-14T03:19:20.987Z,99014.69
2022-09-14T03:20:07.899Z,99012.47
2022-09-14T03:20:54.530Z,99015.66
2022-09-14T03:21:41.150Z,99025.47
2022-09-14T03:22:27.759Z,99014.03
2022-09-14T03:23:14.681Z,99020.09
2022-09-14T03:24:01.392Z,99014.69
2022-09-14T03:24:48.019Z,99019.31
2022-09-14T03:25:43.343Z,99020.16
2022-09-14T03:26:29.983Z,99021.81
2022-09-14T03:27:16.640Z,99023.97
2022-09-14T03:28:03.400Z,99024.22
2022-09-14T03:28:55.299Z,99021.78
2022-09-14T03:29:42.000Z,99018.75
2022-09-14T03:30:29.229Z,99023.44
2022-09-14T03:31:16.160Z,99025.44
2022-09-14T03:32:02.870Z,99025.13
2022-09-14T03:32:49.959Z,99016.91
2022-09-14T03:33:36.580Z,99026.16
2022-09-14T03:34:23.161Z,99016.56
2022-09-14T03:35:09.860Z,99013.28
2022-09-14T03:35:56.527Z,99011.41
2022-09-14T03:36:43.120Z,99012.22
2022-09-14T03:37:29.711Z,99005.94
2022-09-14T03:38:16.335Z,99003.81
2022-09-14T03:39:03.040Z,99008.13
2022-09-14T03:39:49.693Z,99006.19
2022-09-14T03:40:36.389Z,99010.28
2022-09-14T03:41:24.399Z,99008.59
2022-09-14T03:42:11.019Z,99007.00
2022-09-14T03:42:57.821Z,99001.84
2022-09-14T03:43:45.120Z,99005.41
2022-09-14T03:44:31.759Z,99001.56
2022-09-14T03:45:20.219Z,99004.63
2022-09-14T03:46:15.574Z,98995.06
2022-09-14T03:47:02.336Z,98993.94
2022-09-14T03:47:49.701Z,98983.56
2022-09-14T03:48:36.500Z,98985.22
2022-09-14T03:49:23.100Z,98983.84
2022-09-14T03:50:12.150Z,98969.59
2022-09-14T03:51:03.001Z,98976.25
2022-09-14T03:51:49.609Z,98967.50
2022-09-14T03:52:37.300Z,98964.97
2022-09-14T03:53:23.920Z,98968.00
2022-09-14T03:54:10.519Z,98964.13
2022-09-14T03:54:57.289Z,98965.44
2022-09-14T03:55:43.963Z,98971.47
2022-09-14T03:56:31.126Z,98972.34
2022-09-14T03:57:18.169Z,98979.97
2022-09-14T03:58:04.778Z,98979.13
2022-09-14T03:58:51.718Z,98972.84
2022-09-14T03:59:42.980Z,98977.50
2022-09-14T04:00:30.270Z,98975.84
2022-09-14T04:01:19.099Z,98979.09
2022-09-14T04:02:05.872Z,98989.22
2022-09-14T04:02:52.579Z,98977.69
2022-09-14T04:03:39.230Z,98979.63
2022-09-14T04:04:26.109Z,98984.53
2022-09-14T04:05:12.711Z,98978.72
2022-09-14T04:05:59.790Z,98985.03
2022-09-14T04:06:47.640Z,98971.09
2022-09-14T04:07:34.320Z,98974.44
2022-09-14T04:08:20.941Z,98971.97
2022-09-14T04:09:07.596Z,98984.81
2022-09-14T04:09:54.192Z,98986.97
2022-09-14T04:10:40.970Z,98988.28
2022-09-14T04:11:29.020Z,98982.50
2022-09-14T04:12:15.700Z,98979.75
2022-09-14T04:13:02.319Z,98977.34
2022-09-14T04:13:49.553Z,98979.25
2022-09-14T04:14:36.402Z,98978.69
2022-09-14T04:15:23.069Z,98977.28
2022-09-14T04:16:09.828Z,98973.81
2022-09-14T04:16:56.489Z,98973.22
2022-09-14T04:17:43.224Z,98973.16
2022-09-14T04:18:30.067Z,98969.03
2022-09-14T04:19:16.691Z,98974.75
2022-09-14T04:20:03.699Z,98977.00
2022-09-14T04:21:05.765Z,98973.69
2022-09-14T04:21:54.560Z,98971.53
2022-09-14T04:22:41.200Z,98970.44
2022-09-14T04:23:28.080Z,98974.53
2022-09-14T04:24:16.206Z,98969.06
2022-09-14T04:25:03.221Z,98969.41
2022-09-14T04:25:49.902Z,98967.75
2022-09-14T04:26:37.089Z,98969.16
2022-09-14T04:27:23.689Z,98969.66
2022-09-14T04:28:20.204Z,98966.09
2022-09-14T04:29:07.500Z,98954.94
2022-09-14T04:29:54.103Z,98952.28
2022-09-14T04:30:40.681Z,98942.09
2022-09-14T04:31:27.484Z,98941.28
2022-09-14T04:32:14.127Z,98944.00
2022-09-14T04:33:00.720Z,98953.03
2022-09-14T04:33:50.601Z,98943.75
2022-09-14T04:34:37.322Z,98949.81
2022-09-14T04:35:23.921Z,98950.38
2022-09-14T04:36:13.350Z,98960.50
2022-09-14T04:36:59.941Z,98958.03
2022-09-14T04:37:46.580Z,98957.78
2022-09-14T04:38:33.239Z,98967.38
2022-09-14T04:39:20.170Z,98962.47
2022-09-14T04:40:07.483Z,98966.88
2022-09-14T04:40:54.181Z,98969.31
2022-09-14T04:41:41.019Z,98973.19
2022-09-14T04:42:27.722Z,98967.03
2022-09-14T04:43:14.330Z,98970.56
2022-09-14T04:44:01.109Z,98969.44
2022-09-14T04:44:47.741Z,98969.19
2022-09-14T04:45:34.398Z,98960.72
2022-09-14T04:46:22.748Z,98965.09
2022-09-14T04:47:09.379Z,98966.22
2022-09-14T04:47:55.959Z,98963.81
2022-09-14T04:48:43.068Z,98965.75
2022-09-14T04:49:29.730Z,98972.91
2022-09-14T04:50:16.351Z,98968.81
2022-09-14T04:51:19.810Z,98966.34
2022-09-14T04:52:06.413Z,98959.78
2022-09-14T04:52:53.024Z,98960.62
2022-09-14T04:53:40.180Z,98957.06
2022-09-14T04:54:26.860Z,98961.44
2022-09-14T04:55:13.800Z,98957.87
2022-09-14T04:56:01.609Z,98962.00
2022-09-14T04:56:48.328Z,98954.66
2022-09-14T04:57:34.941Z,98961.81
2022-09-14T04:58:21.540Z,98951.69
2022-09-14T04:59:08.290Z,98951.44
2022-09-14T04:59:54.899Z,98953.62
2022-09-14T05:00:41.510Z,98951.75
2022-09-14T05:01:30.049Z,98953.94
2022-09-14T05:02:16.925Z,98947.41
2022-09-14T05:03:05.041Z,98950.97
2022-09-14T05:03:52.389Z,98957.28
2022-09-14T05:04:38.999Z,98953.44
2022-09-14T05:05:25.821Z,98957.87
2022-09-14T05:06:15.637Z,98961.47
2022-09-14T05:07:02.309Z,98962.56
2022-09-14T05:07:48.959Z,98959.00
2022-09-14T05:08:36.660Z,98959.50
2022-09-14T05:09:23.282Z,98967.47
2022-09-14T05:10:10.022Z,98968.56
2022-09-14T05:10:57.850Z,98967.72
2022-09-14T05:11:44.770Z,98967.19
2022-09-14T05:12:31.380Z,98972.13
2022-09-14T05:13:18.002Z,98970.78
2022-09-14T05:14:05.342Z,98971.63
2022-09-14T05:14:51.973Z,98969.69
2022-09-14T05:15:38.641Z,98964.78
2022-09-14T05:16:30.250Z,98966.69
2022-09-14T05:17:16.880Z,98970.53
2022-09-14T05:18:03.561Z,98974.91
2022-09-14T05:18:50.991Z,98972.44
2022-09-14T05:19:37.582Z,98970.53
2022-09-14T05:20:24.241Z,98972.19
2022-09-14T05:21:13.310Z,98978.47
2022-09-14T05:21:59.929Z,98977.66
2022-09-14T05:22:49.840Z,98975.47
2022-09-14T05:23:37.102Z,98977.13
2022-09-14T05:24:23.781Z,98983.97
2022-09-14T05:25:10.421Z,98979.28
2022-09-14T05:25:57.320Z,98983.09
2022-09-14T05:26:45.283Z,98986.69
2022-09-14T05:27:32.162Z,98989.13
2022-09-14T05:28:18.759Z,98991.62
2022-09-14T05:29:05.629Z,98987.78
2022-09-14T05:29:52.259Z,98995.97
2022-09-14T05:30:41.709Z,98991.62
2022-09-14T05:31:29.317Z,98996.84
2022-09-14T05:32:15.940Z,98998.44
2022-09-14T05:33:02.578Z,98995.16
2022-09-14T05:33:49.965Z,99000.06
2022-09-14T05:34:36.900Z,99009.09
2022-09-14T05:35:23.619Z,99010.53
2022-09-14T05:36:10.525Z,99003.69
2022-09-14T05:36:57.124Z,99003.44
2022-09-14T05:37:43.730Z,99009.47
2022-09-14T05:38:31.385Z,99011.38
2022-09-14T05:39:23.031Z,99015.47
2022-09-14T05:40:10.589Z,99012.47
2022-09-14T05:40:57.320Z,99014.38
2022-09-14T05:41:43.943Z,99013.53
2022-09-14T05:42:30.620Z,99009.16
2022-09-14T05:43:17.222Z,99014.09
2022-09-14T05:44:04.010Z,99012.47
2022-09-14T05:44:50.771Z,99013.81
2022-09-14T05:45:37.398Z,99010.25
2022-09-14T05:46:24.158Z,99021.75
2022-09-14T05:47:10.798Z,99011.91
2022-09-14T05:48:02.220Z,99014.09
2022-09-14T05:48:51.767Z,99008.38
2022-09-14T05:49:38.597Z,99005.97
2022-09-14T05:50:25.259Z,99004.59
2022-09-14T05:51:16.632Z,98996.94
2022-09-14T05:52:03.475Z,99002.16
2022-09-14T05:52:51.601Z,98992.28
2022-09-14T05:53:38.309Z,98985.97
2022-09-14T05:54:25.321Z,98984.59
2022-09-14T05:55:11.939Z,98978.56
2022-09-14T05:56:06.359Z,98981.53
2022-09-14T05:56:52.996Z,98976.06
2022-09-14T05:57:39.579Z,98964.00
2022-09-14T05:58:27.090Z,98974.13
2022-09-14T05:59:13.846Z,98974.41
2022-09-14T06:00:00.531Z,98977.69
2022-09-14T06:00:47.190Z,98979.69
2022-09-14T06:01:33.994Z,98977.50
2022-09-14T06:02:20.799Z,98981.34
2022-09-14T06:03:07.591Z,98988.22
2022-09-14T06:04:00.425Z,98993.19
2022-09-14T06:04:47.047Z,98993.50
2022-09-14T06:05:35.779Z,98991.88
2022-09-14T06:06:22.720Z,99006.94
2022-09-14T06:07:18.289Z,98998.75
2022-09-14T06:08:06.044Z,99000.13
2022-09-14T06:08:54.277Z,99003.44
2022-09-14T06:09:41.000Z,99005.09
2022-09-14T06:10:27.651Z,99005.38
2022-09-14T06:11:19.630Z,99004.53
2022-09-14T06:12:06.501Z,99001.53
2022-09-14T06:12:55.482Z,99001.28
2022-09-14T06:13:43.315Z,99002.34
2022-09-14T06:14:30.070Z,99004.81
2022-09-14T06:15:17.060Z,98998.25
2022-09-14T06:16:09.430Z,99004.28
2022-09-14T06:16:56.169Z,99001.28
2022-09-14T06:17:42.930Z,98996.31
2022-09-14T06:18:32.129Z,98999.34
2022-09-14T06:19:18.931Z,98994.16
2022-09-14T06:20:07.971Z,98996.09
2022-09-14T06:20:54.725Z,98998.56
2022-09-14T06:21:42.219Z,98994.19
2022-09-14T06:22:28.881Z,98992.00
2022-09-14T06:23:15.579Z,98995.31
2022-09-14T06:24:02.721Z,98985.19
2022-09-14T06:24:49.480Z,98992.03
2022-09-14T06:25:36.181Z,98989.03
2022-09-14T06:26:22.962Z,98980.53
2022-09-14T06:27:10.271Z,98985.72
2022-09-14T06:27:57.058Z,98979.69
2022-09-14T06:28:44.149Z,98979.41
2022-09-14T06:29:31.310Z,98983.00
2022-09-14T06:30:18.080Z,98982.16
2022-09-14T06:31:08.680Z,98980.25
2022-09-14T06:31:55.364Z,98978.59
2022-09-14T06:32:42.279Z,98982.97
2022-09-14T06:33:29.090Z,98983.81
2022-09-14T06:34:15.822Z,98974.19
2022-09-14T06:35:03.960Z,98980.78
2022-09-14T06:36:09.327Z,98973.91
2022-09-14T06:36:56.599Z,98977.75
2022-09-14T06:37:43.378Z,98979.69
2022-09-14T06:38:30.649Z,98986.81
2022-09-14T06:39:17.803Z,98986.00
2022-09-14T06:40:05.157Z,98986.53
2022-09-14T06:40:57.251Z,98985.19
2022-09-14T06:41:44.261Z,98991.22
2022-09-14T06:42:31.181Z,98984.91
2022-09-14T06:43:17.899Z,98979.41
2022-09-14T06:44:04.802Z,98971.16
2022-09-14T06:44:51.462Z,98970.91
2022-09-14T06:45:38.521Z,98963.50
2022-09-14T06:46:31.350Z,98954.97
2022-09-14T06:47:18.099Z,98950.03
2022-09-14T06:48:04.990Z,98957.44
2022-09-14T06:48:53.052Z,98958.25
2022-09-14T06:49:39.811Z,98960.44
2022-09-14T06:50:26.751Z,98961.56
2022-09-14T06:51:16.542Z,98963.75
2022-09-14T06:52:03.285Z,98969.78
2022-09-14T06:52:50.189Z,98959.63
2022-09-14T06:53:36.969Z,98956.03
2022-09-14T06:54:24.971Z,98960.44
2022-09-14T06:55:11.939Z,98962.63
2022-09-14T06:55:59.579Z,98960.97
2022-09-14T06:56:46.821Z,98962.06
2022-09-14T06:57:33.580Z,98962.84
2022-09-14T06:58:20.380Z,98970.59
2022-09-14T06:59:08.940Z,98981.81
2022-09-14T06:59:55.839Z,98978.50
2022-09-14T07:00:42.860Z,98991.72
2022-09-14T07:01:30.192Z,98996.63
2022-09-14T07:02:16.934Z,99004.34
2022-09-14T07:03:04.851Z,98992.47
2022-09-14T07:03:52.642Z,98999.34
2022-09-14T07:04:39.410Z,98998.81
2022-09-14T07:05:26.199Z,98991.97
2022-09-14T07:06:24.489Z,98989.81
2022-09-14T07:07:11.315Z,98984.88
2022-09-14T07:07:58.345Z,98980.72
2022-09-14T07:08:45.168Z,98973.59
2022-09-14T07:09:32.137Z,98980.47
2022-09-14T07:10:19.379Z,98970.56
2022-09-14T07:11:07.699Z,98964.25
2022-09-14T07:11:54.926Z,98968.38
2022-09-14T07:12:41.750Z,98969.19
2022-09-14T07:13:29.589Z,98971.28
2022-09-14T07:14:16.876Z,98970.19
2022-09-14T07:15:04.978Z,98974.88
2022-09-14T07:15:52.124Z,98968.00
2022-09-14T07:16:40.271Z,98975.97
2022-09-14T07:17:27.050Z,98967.97
2022-09-14T07:18:13.940Z,98976.22
2022-09-14T07:19:03.280Z,98971.56
2022-09-14T07:19:50.010Z,98972.37
2022-09-14T07:20:36.794Z,98976.97
2022-09-14T07:21:24.358Z,98968.19
2022-09-14T07:22:11.063Z,98967.03
2022-09-14T07:22:57.970Z,98970.81
2022-09-14T07:23:46.940Z,98969.94
2022-09-14T07:24:33.701Z,98971.28
2022-09-14T07:25:20.490Z,98972.56
2022-09-14T07:26:16.669Z,98969.22
2022-09-14T07:27:03.638Z,98974.44
2022-09-14T07:27:50.555Z,98972.72
2022-09-14T07:28:37.962Z,98970.81
2022-09-14T07:29:24.981Z,98972.37
2022-09-14T07:30:13.010Z,98969.75
2022-09-14T07:31:00.353Z,98967.22
2022-09-14T07:31:49.988Z,98966.88
2022-09-14T07:32:36.790Z,98970.69
2022-09-14T07:33:23.810Z,98955.47
2022-09-14T07:34:11.541Z,98956.75
2022-09-14T07:34:58.499Z,98960.62
2022-09-14T07:35:45.260Z,98958.78
2022-09-14T07:36:35.400Z,98966.16
2022-09-14T07:37:22.219Z,98958.34
2022-09-14T07:38:09.050Z,98959.16
2022-09-14T07:38:56.459Z,98964.13
2022-09-14T07:39:43.317Z,98958.34
2022-09-14T07:40:30.488Z,98958.78
2022-09-14T07:41:17.371Z,98952.88
2022-09-14T07:42:04.331Z,98950.59
2022-09-14T07:42:55.574Z,98953.34
2022-09-14T07:43:44.581Z,98965.44
2022-09-14T07:44:31.400Z,98953.25
2022-09-14T07:45:18.121Z,98959.47
2022-09-14T07:46:06.027Z,98955.41
2022-09-14T07:46:52.870Z,98958.28
2022-09-14T07:47:39.569Z,98946.91
2022-09-14T07:48:26.650Z,98948.78
2022-09-14T07:49:14.561Z,98948.84
2022-09-14T07:50:01.325Z,98942.22
2022-09-14T07:50:48.129Z,98938.94
2022-09-14T07:51:37.041Z,98932.81
2022-09-14T07:52:23.810Z,98930.56
2022-09-14T07:53:10.600Z,98935.53
2022-09-14T07:53:57.609Z,98929.59
2022-09-14T07:54:44.411Z,98931.16
2022-09-14T07:55:31.161Z,98933.34
2022-09-14T07:56:18.060Z,98928.03
2022-09-14T07:57:05.110Z,98930.53
2022-09-14T07:57:56.422Z,98933.53
2022-09-14T07:58:44.538Z,98940.41
2022-09-14T07:59:35.969Z,98939.22
2022-09-14T08:00:24.434Z,98945.25
2022-09-14T08:01:13.456Z,98949.44
2022-09-14T08:02:00.405Z,98948.56
2022-09-14T08:02:52.818Z,98952.50
2022-09-14T08:03:46.220Z,98950.63
2022-09-14T08:04:36.800Z,98948.16
2022-09-14T08:05:23.999Z,98958.56
2022-09-14T08:06:21.582Z,98960.69
2022-09-14T08:07:09.303Z,98960.97
2022-09-14T08:07:56.570Z,98963.69
2022-09-14T08:08:46.670Z,98963.56
2022-09-14T08:09:33.542Z,98971.22
2022-09-14T08:10:20.335Z,98972.13
2022-09-14T08:11:11.248Z,98982.69
2022-09-14T08:11:58.046Z,98972.56
2022-09-14T08:12:44.741Z,98974.06
2022-09-14T08:13:32.961Z,98968.75
2022-09-14T08:14:19.620Z,98973.56
2022-09-14T08:15:07.027Z,98972.84
2022-09-14T08:15:53.741Z,98971.09
2022-09-14T08:16:41.223Z,98978.25
2022-09-14T08:17:28.303Z,98982.16
2022-09-14T08:18:15.078Z,98985.78
2022-09-14T08:19:03.981Z,98996.25
2022-09-14T08:19:52.328Z,98987.06
2022-09-14T08:20:39.222Z,98991.16
2022-09-14T08:21:28.220Z,98989.75
2022-09-14T08:22:15.130Z,98995.47
2022-09-14T08:23:01.866Z,98993.47
2022-09-14T08:23:49.080Z,98999.34
2022-09-14T08:24:35.908Z,99000.81
2022-09-14T08:25:22.667Z,99010.84
2022-09-14T08:26:27.750Z,99002.63
2022-09-14T08:27:17.148Z,99010.13
2022-09-14T08:28:04.148Z,99007.12
2022-09-14T08:28:51.816Z,99011.13
2022-09-14T08:29:39.949Z,99012.03
2022-09-14T08:30:26.703Z,99013.44
2022-09-14T08:31:21.054Z,99015.72
2022-09-14T08:32:07.884Z,99018.59
2022-09-14T08:32:57.032Z,99013.88
2022-09-14T08:33:48.521Z,99012.94
2022-09-14T08:34:35.440Z,99014.34
2022-09-14T08:35:40.853Z,99014.66
2022-09-14T08:36:31.500Z,99014.66
2022-09-14T08:37:18.481Z,99001.53
2022-09-14T08:38:05.178Z,99001.09
2022-09-14T08:38:52.290Z,99001.38
2022-09-14T08:39:39.018Z,98994.87
2022-09-14T08:40:25.949Z,98991.66
2022-09-14T08:41:18.328Z,98994.28
2022-09-14T08:42:06.400Z,98991.59
2022-09-14T08:42:55.790Z,98996.50
2022-09-14T08:43:42.490Z,98995.63
2022-09-14T08:44:44.923Z,98989.13
2022-09-14T08:45:32.032Z,98993.91
2022-09-14T08:46:31.451Z,98984.22
2022-09-14T08:47:34.302Z,98990.94
2022-09-14T08:48:30.761Z,98986.22
2022-09-14T08:49:30.290Z,98985.19
2022-09-14T08:50:19.982Z,98991.38
2022-09-14T08:51:06.807Z,98984.66
2022-09-14T08:51:53.647Z,98985.56
2022-09-14T08:52:44.641Z,98979.75
2022-09-14T08:53:35.450Z,98982.34
2022-09-14T08:54:22.558Z,98977.66
2022-09-14T08:55:30.908Z,98982.16
2022-09-14T08:56:21.891Z,98982.56
2022-09-14T08:57:29.003Z,98978.09
2022-09-14T08:58:15.755Z,98982.25
2022-09-14T08:59:08.950Z,98974.50
2022-09-14T09:00:01.875Z,98972.37
2022-09-14T09:01:02.473Z,98972.66
2022-09-14T09:02:20.050Z,98974.63
2022-09-14T09:03:25.580Z,98981.63
2022-09-14T09:04:29.615Z,98972.03
2022-09-14T09:05:36.870Z,98974.13
2022-09-14T09:06:52.730Z,98969.72
2022-09-14T09:07:46.650Z,98966.56
2022-09-14T09:08:48.335Z,98966.78
2022-09-14T09:09:45.168Z,98965.53
2022-09-14T09:10:32.501Z,98965.94
2022-09-14T09:11:21.370Z,98962.19
2022-09-14T09:12:13.589Z,98960.47
2022-09-14T09:13:01.486Z,98958.63
2022-09-14T09:13:50.058Z,98959.97
2022-09-14T09:14:40.888Z,98965.09
2022-09-14T09:15:34.857Z,98964.16
2022-09-14T09:16:24.488Z,98965.94
2022-09-14T09:17:25.140Z,98961.00
2022-09-14T09:18:15.418Z,98959.59
2022-09-14T09:19:06.079Z,98959.19
2022-09-14T09:20:23.627Z,98959.31
2022-09-14T09:21:16.580Z,98961.69
2022-09-14T09:22:06.110Z,98958.25
2022-09-14T09:23:17.120Z,98958.16
2022-09-14T09:24:18.340Z,98958.66
2022-09-14T09:25:05.470Z,98959.56
2022-09-14T09:26:19.916Z,98960.78
2022-09-14T09:27:14.362Z,98965.31
2022-09-14T09:28:03.499Z,98961.28
2022-09-14T09:28:52.658Z,98962.84
2022-09-14T09:29:39.840Z,98967.22
2022-09-14T09:30:28.888Z,98966.44
2022-09-14T09:31:17.555Z,98962.25
2022-09-14T09:32:04.940Z,98961.56
2022-09-14T09:32:52.247Z,98961.22
2022-09-14T09:33:39.250Z,98959.72
2022-09-14T09:34:30.410Z,98960.59
2022-09-14T09:35:20.828Z,98960.88
2022-09-14T09:36:08.338Z,98963.25
2022-09-14T09:37:00.983Z,98965.59
2022-09-14T09:37:47.689Z,98963.16
2022-09-14T09:38:34.808Z,98954.66
2022-09-14T09:39:23.294Z,98962.25
2022-09-14T09:40:22.956Z,98957.72
2022-09-14T09:41:23.436Z,98957.63
2022-09-14T09:42:23.730Z,98967.75
2022-09-14T09:43:24.471Z,98958.75
2022-09-14T09:44:20.550Z,98959.25
2022-09-14T09:45:07.420Z,98967.06
2022-09-14T09:46:04.780Z,98958.84
2022-09-14T09:46:55.836Z,98958.75
2022-09-14T09:47:43.099Z,98956.06
2022-09-14T09:48:33.789Z,98957.19